createdAt,value
2023-02-18T00:05:33.138Z,24.40
2023-02-18T00:11:44.821Z,24.30
2023-02-18T00:17:56.394Z,24.10
2023-02-18T00:24:10.051Z,23.90
2023-02-18T00:30:18.845Z,23.90
2023-02-18T00:36:26.639Z,24.10
2023-02-18T00:42:37.614Z,24.40
2023-02-18T00:48:45.665Z,24.30
2023-02-18T00:54:53.911Z,24.00
2023-02-18T01:01:07.224Z,23.80
2023-02-18T01:07:17.114Z,23.90
2023-02-18T01:13:25.362Z,24.10
2023-02-18T01:19:36.251Z,24.20
2023-02-18T01:25:47.512Z,24.00
2023-02-18T01:31:59.167Z,23.90
2023-02-18T01:38:09.842Z,24.00
2023-02-18T01:44:25.549Z,24.00
2023-02-18T01:50:35.436Z,23.80
2023-02-18T01:56:47.700Z,23.60
2023-02-18T02:03:00.137Z,23.50
2023-02-18T02:09:08.845Z,23.40
2023-02-18T02:15:36.535Z,23.40
2023-02-18T02:22:17.558Z,23.30
2023-02-18T02:28:46.581Z,23.20
2023-02-18T02:34:59.161Z,23.20
2023-02-18T02:41:14.438Z,23.10
2023-02-18T02:53:45.512Z,22.90
2023-02-18T02:59:55.126Z,22.90
2023-02-18T03:06:14.909Z,22.90
2023-02-18T03:12:31.418Z,22.80
2023-02-18T03:18:42.891Z,22.80
2023-02-18T03:24:51.875Z,22.70
2023-02-18T03:31:06.710Z,22.60
2023-02-18T03:37:14.181Z,22.50
2023-02-18T03:43:25.829Z,22.50
2023-02-18T03:49:35.292Z,22.40
2023-02-18T03:55:44.318Z,22.40
2023-02-18T04:01:56.233Z,22.30
2023-02-18T04:08:04.115Z,22.20
2023-02-18T04:14:15.664Z,22.20
2023-02-18T04:20:27.926Z,22.20
2023-02-18T04:26:36.689Z,22.00
2023-02-18T04:32:46.363Z,22.00
2023-02-18T04:38:57.691Z,22.00
2023-02-18T04:45:07.442Z,21.80
2023-02-18T04:51:18.098Z,21.80
2023-02-18T04:57:27.581Z,21.70
2023-02-18T05:03:37.005Z,21.70
2023-02-18T05:09:44.562Z,21.70
2023-02-18T05:15:53.678Z,21.60
2023-02-18T05:22:06.168Z,21.50
2023-02-18T05:28:14.323Z,21.50
2023-02-18T05:34:23.226Z,21.50
2023-02-18T05:40:32.993Z,21.50
2023-02-18T05:46:44.752Z,21.80
2023-02-18T05:52:57.180Z,21.80
2023-02-18T05:59:10.774Z,21.60
2023-02-18T06:05:20.160Z,21.50
2023-02-18T06:11:29.282Z,21.60
2023-02-18T06:17:38.398Z,21.80
2023-02-18T06:23:47.571Z,21.70
2023-02-18T06:30:01.003Z,21.50
2023-02-18T06:36:13.864Z,21.50
2023-02-18T06:42:24.664Z,21.60
2023-02-18T06:48:35.842Z,21.80
2023-02-18T06:54:45.876Z,21.60
2023-02-18T07:00:55.978Z,21.50
2023-02-18T07:07:06.834Z,21.40
2023-02-18T07:13:19.385Z,21.60
2023-02-18T07:19:27.459Z,21.80
2023-02-18T07:25:34.732Z,21.70
2023-02-18T07:31:45.127Z,21.50
2023-02-18T07:37:52.449Z,21.40
2023-02-18T07:44:03.600Z,21.60
2023-02-18T07:50:17.186Z,21.90
2023-02-18T07:56:26.385Z,21.70
2023-02-18T08:02:36.432Z,21.50
2023-02-18T08:08:46.363Z,21.50
2023-02-18T08:14:57.394Z,21.70
2023-02-18T08:21:09.374Z,21.90
2023-02-18T08:27:16.723Z,21.60
2023-02-18T08:33:27.410Z,21.50
2023-02-18T08:39:39.912Z,21.60
2023-02-18T08:45:50.954Z,21.80
2023-02-18T08:52:01.197Z,21.80
2023-02-18T08:58:11.084Z,21.60
2023-02-18T09:04:22.012Z,21.40
2023-02-18T09:10:31.058Z,21.60
2023-02-18T09:16:41.126Z,21.80
2023-02-18T09:22:52.095Z,21.80
2023-02-18T09:29:01.249Z,21.50
2023-02-18T09:35:10.281Z,21.40
2023-02-18T09:41:23.549Z,21.60
2023-02-18T09:47:35.836Z,21.90
2023-02-18T09:53:47.316Z,21.70
2023-02-18T09:59:58.611Z,21.50
2023-02-18T10:06:09.461Z,21.50
2023-02-18T10:12:19.395Z,21.70
2023-02-18T10:18:31.714Z,21.80
2023-02-18T10:24:43.599Z,21.60
2023-02-18T10:30:54.441Z,21.40
2023-02-18T10:37:08.040Z,21.60
2023-02-18T10:43:22.002Z,21.80
2023-02-18T10:49:48.271Z,21.70
2023-02-18T10:55:59.587Z,21.50
2023-02-18T11:02:14.790Z,21.50
2023-02-18T11:08:26.502Z,21.60
2023-02-18T11:14:45.426Z,21.80
2023-02-18T11:27:14.729Z,21.40
2023-02-18T11:33:24.870Z,21.50
2023-02-18T11:39:34.902Z,21.80
2023-02-18T11:45:46.475Z,21.80
2023-02-18T11:51:53.839Z,21.60
2023-02-18T11:58:05.655Z,21.50
2023-02-18T12:04:18.041Z,21.70
2023-02-18T12:10:31.085Z,21.90
2023-02-18T12:16:43.158Z,21.60
2023-02-18T12:22:56.488Z,21.50
2023-02-18T12:29:20.341Z,21.70
2023-02-18T12:35:44.257Z,21.90
2023-02-18T12:42:06.915Z,22.10
2023-02-18T12:48:33.775Z,22.30
2023-02-18T12:55:22.141Z,22.50
2023-02-18T13:01:44.210Z,22.80
2023-02-18T13:08:01.453Z,23.00
2023-02-18T13:14:13.651Z,23.20
2023-02-18T13:20:29.145Z,23.40
2023-02-18T13:26:38.741Z,23.50
2023-02-18T13:32:50.129Z,23.80
2023-02-18T13:39:06.966Z,24.00
2023-02-18T13:45:38.882Z,24.00
2023-02-18T13:51:49.150Z,23.80
2023-02-18T13:57:59.266Z,23.50
2023-02-18T14:04:23.570Z,23.70
2023-02-18T14:10:34.996Z,23.90
2023-02-18T14:17:19.179Z,24.10
2023-02-18T14:23:53.072Z,24.00
2023-02-18T14:30:09.111Z,23.90
2023-02-18T14:36:23.571Z,23.90
2023-02-18T14:42:37.072Z,24.10
2023-02-18T14:48:51.475Z,24.30
2023-02-18T14:55:03.721Z,24.20
2023-02-18T15:01:22.917Z,23.90
2023-02-18T15:07:33.879Z,23.80
2023-02-18T15:13:44.771Z,23.80
2023-02-18T15:19:56.433Z,24.10
2023-02-18T15:26:05.680Z,24.40
2023-02-18T15:32:21.224Z,24.40
2023-02-18T15:38:32.723Z,24.30
2023-02-18T15:44:46.302Z,24.30
2023-02-18T15:50:58.513Z,24.30
2023-02-18T15:57:08.227Z,24.20
2023-02-18T16:03:20.408Z,24.40
2023-02-18T16:09:32.111Z,24.60
2023-02-18T16:15:44.854Z,24.50
2023-02-18T16:21:57.836Z,24.20
2023-02-18T16:28:14.229Z,23.80
2023-02-18T16:34:22.938Z,23.70
2023-02-18T16:40:35.200Z,24.00
2023-02-18T16:46:47.771Z,24.00
2023-02-18T16:52:59.334Z,23.60
2023-02-18T16:59:08.927Z,23.40
2023-02-18T17:05:26.820Z,23.70
2023-02-18T17:11:34.119Z,23.90
2023-02-18T17:17:42.499Z,23.90
2023-02-18T17:23:52.462Z,23.70
2023-02-18T17:30:00.005Z,23.50
2023-02-18T17:36:12.154Z,23.30
2023-02-18T17:42:19.667Z,23.50
2023-02-18T17:48:29.957Z,23.80
2023-02-18T17:54:42.379Z,23.80
2023-02-18T18:00:53.807Z,23.60
2023-02-18T18:07:03.579Z,23.40
2023-02-18T18:13:15.281Z,23.40
2023-02-18T18:19:24.384Z,23.60
2023-02-18T18:25:32.887Z,23.80
2023-02-18T18:31:41.837Z,23.90
2023-02-18T18:37:50.454Z,23.70
2023-02-18T18:44:00.329Z,23.60
2023-02-18T18:50:10.951Z,23.60
2023-02-18T18:56:23.718Z,23.70
2023-02-18T19:02:33.896Z,23.70
2023-02-18T19:08:41.914Z,23.50
2023-02-18T19:14:51.052Z,23.50
2023-02-18T19:21:02.816Z,23.70
2023-02-18T19:27:14.980Z,23.50
2023-02-18T19:33:25.774Z,23.40
2023-02-18T19:39:36.510Z,23.60
2023-02-18T19:45:46.056Z,23.70
2023-02-18T19:51:54.946Z,23.50
2023-02-18T19:58:03.762Z,23.30
2023-02-18T20:04:12.603Z,23.50
2023-02-18T20:10:23.283Z,23.70
2023-02-18T20:16:32.580Z,23.80
2023-02-18T20:22:42.212Z,23.60
2023-02-18T20:28:50.463Z,23.40
2023-02-18T20:35:01.741Z,23.50
2023-02-18T20:41:12.122Z,23.70
2023-02-18T20:47:20.891Z,23.80
2023-02-18T20:53:31.578Z,23.60
2023-02-18T20:59:39.795Z,23.40
2023-02-18T21:05:51.524Z,23.30
2023-02-18T21:12:00.616Z,23.50
2023-02-18T21:18:09.087Z,23.60
2023-02-18T21:24:17.645Z,23.50
2023-02-18T21:30:28.778Z,23.20
2023-02-18T21:36:36.133Z,23.50
2023-02-18T21:42:44.540Z,23.60
2023-02-18T21:49:08.471Z,23.80
2023-02-18T21:55:18.576Z,23.60
2023-02-18T22:01:27.913Z,23.50
2023-02-18T22:07:39.905Z,23.30
2023-02-18T22:13:47.979Z,23.50
2023-02-18T22:19:58.039Z,23.60
2023-02-18T22:26:12.862Z,23.50
2023-02-18T22:32:24.030Z,23.20
2023-02-18T22:38:33.428Z,23.50
2023-02-18T22:44:41.102Z,23.70
2023-02-18T22:50:53.916Z,23.60
2023-02-18T22:57:04.622Z,23.30
2023-02-18T23:03:15.956Z,23.10
2023-02-18T23:09:28.473Z,23.10
2023-02-18T23:15:39.277Z,23.30
2023-02-18T23:21:49.208Z,23.60
2023-02-18T23:27:56.834Z,23.60
2023-02-18T23:34:06.428Z,23.30
2023-02-18T23:40:18.345Z,23.20
2023-02-18T23:46:29.301Z,23.20
2023-02-18T23:52:39.596Z,23.20
2023-02-18T23:58:50.317Z,23.30
